Pagrindinis puslapis
METAR-TAF:

METAR-TAF

Oro uostai :

Providensjalas, Terksas ir Kaikosas

platuma: 21-46-25N, ilguma: 072-15-57W, Aukštis: 5 m

Dabartinis oras

Ataskaita buvo paskelbta 6 valandos ir 9 minutes, ne 00:00 UTC
Vėjas 8 kt iš Rytų/Šiaurės Rytų
Temperatūra 28°C
Drėgmė 70%
Slėgis 1016 hPa
Matomumas 10 km arba daugiau
Išsisklaidę debesys ne aukštis 1200 ft

METAR: MBPV 110000Z 06008KT 9999 SCT012 28/22 Q1016

Laikas: 02:09 (06:09 UTC)

Prognozė

Ataskaita buvo paskelbta 1 valandą ir 9 minutes, ne 05:00 UTC
Prognozė galioja nuo 11 metu 06 UTC su 12 metu 06 UTC
Vėjas 10 kt iš Rytų
Matomumas 10 km arba daugiau
Išsisklaidę debesys ne aukštis 2000 ft
Tikimybė 30% :
Laikinai
nuo 11 metu 13 UTC su 11 metu 18 UTC
Išsisklaidę debesys ne aukštis 1800 ft
Liūtis kaimynystėje

TAF: MBPV 110500Z 1106/1206 09010KT 9999 SCT020 PROB30 TEMPO 1113/1118 VCSH SCT018

Orai ataskaitas ir orų prognozės (METAR, TAF).

turimą stotys yra geltonos ir raudonos taškus žemėlapyje.

Perkelti pele per norėdami pamatyti stoties vardą.

Tada spustelėkite, norėdami matyti oro stebėjimo ir prognozės.

Norėdami pakeisti žemėlapį: spustelėkite ant žalios mygtukų su juodo kryžiaus žemyn,; žalią mygtuką su brūkšneliu, jei norite nutolinti; arba žalių rodyklių gretimoms žemėlapius.


METAR-TAF: